sensor_id;sensor_type;location;lat;lon;timestamp;P1;durP1;ratioP1;P2;durP2;ratioP2
22713;SDS011;11524;50.846;4.326;2023-01-10T00:00:46;23.08;;;11.38;;
22713;SDS011;11524;50.846;4.326;2023-01-10T00:03:11;28.83;;;13.43;;
22713;SDS011;11524;50.846;4.326;2023-01-10T00:05:37;23.80;;;13.00;;
22713;SDS011;11524;50.846;4.326;2023-01-10T00:08:04;25.00;;;12.98;;
22713;SDS011;11524;50.846;4.326;2023-01-10T00:10:32;25.83;;;12.45;;
22713;SDS011;11524;50.846;4.326;2023-01-10T00:13:04;22.83;;;12.55;;
22713;SDS011;11524;50.846;4.326;2023-01-10T00:15:47;23.02;;;12.77;;
22713;SDS011;11524;50.846;4.326;2023-01-10T00:18:17;23.83;;;12.85;;
22713;SDS011;11524;50.846;4.326;2023-01-10T00:20:50;27.10;;;13.98;;
22713;SDS011;11524;50.846;4.326;2023-01-10T00:23:15;24.27;;;13.90;;
22713;SDS011;11524;50.846;4.326;2023-01-10T00:25:42;25.42;;;12.98;;
22713;SDS011;11524;50.846;4.326;2023-01-10T00:28:08;23.25;;;13.18;;
22713;SDS011;11524;50.846;4.326;2023-01-10T00:30:58;27.42;;;14.02;;
22713;SDS011;11524;50.846;4.326;2023-01-10T00:33:30;21.42;;;13.23;;
22713;SDS011;11524;50.846;4.326;2023-01-10T00:36:21;23.15;;;12.85;;
22713;SDS011;11524;50.846;4.326;2023-01-10T00:38:47;24.83;;;13.18;;
22713;SDS011;11524;50.846;4.326;2023-01-10T00:41:13;24.33;;;12.52;;
22713;SDS011;11524;50.846;4.326;2023-01-10T00:43:58;26.40;;;13.90;;
22713;SDS011;11524;50.846;4.326;2023-01-10T00:46:24;27.73;;;14.75;;
22713;SDS011;11524;50.846;4.326;2023-01-10T00:48:51;26.98;;;14.43;;
22713;SDS011;11524;50.846;4.326;2023-01-10T00:51:17;26.33;;;14.10;;
22713;SDS011;11524;50.846;4.326;2023-01-10T00:53:43;26.98;;;14.40;;
22713;SDS011;11524;50.846;4.326;2023-01-10T00:56:09;26.33;;;13.68;;
22713;SDS011;11524;50.846;4.326;2023-01-10T00:58:34;23.67;;;13.60;;
22713;SDS011;11524;50.846;4.326;2023-01-10T01:01:00;26.67;;;13.25;;
22713;SDS011;11524;50.846;4.326;2023-01-10T01:03:25;22.65;;;12.85;;
22713;SDS011;11524;50.846;4.326;2023-01-10T01:05:51;25.45;;;14.15;;
22713;SDS011;11524;50.846;4.326;2023-01-10T01:08:19;24.55;;;13.95;;
22713;SDS011;11524;50.846;4.326;2023-01-10T01:10:45;26.88;;;14.43;;
22713;SDS011;11524;50.846;4.326;2023-01-10T01:13:12;23.92;;;13.82;;
22713;SDS011;11524;50.846;4.326;2023-01-10T01:15:40;28.48;;;15.02;;
22713;SDS011;11524;50.846;4.326;2023-01-10T01:18:06;27.85;;;14.63;;
22713;SDS011;11524;50.846;4.326;2023-01-10T01:20:32;25.73;;;14.48;;
22713;SDS011;11524;50.846;4.326;2023-01-10T01:23:02;25.30;;;13.82;;
22713;SDS011;11524;50.846;4.326;2023-01-10T01:25:29;28.25;;;14.95;;
22713;SDS011;11524;50.846;4.326;2023-01-10T01:27:55;26.50;;;14.70;;
22713;SDS011;11524;50.846;4.326;2023-01-10T01:30:20;24.52;;;14.00;;
22713;SDS011;11524;50.846;4.326;2023-01-10T01:32:46;23.30;;;13.70;;
22713;SDS011;11524;50.846;4.326;2023-01-10T01:35:15;24.00;;;14.93;;
22713;SDS011;11524;50.846;4.326;2023-01-10T01:37:43;26.77;;;13.90;;
22713;SDS011;11524;50.846;4.326;2023-01-10T01:40:11;25.00;;;13.70;;
22713;SDS011;11524;50.846;4.326;2023-01-10T01:42:51;25.75;;;13.10;;
22713;SDS011;11524;50.846;4.326;2023-01-10T01:47:56;25.52;;;14.30;;
22713;SDS011;11524;50.846;4.326;2023-01-10T01:53:01;23.02;;;14.00;;
22713;SDS011;11524;50.846;4.326;2023-01-10T01:55:34;29.47;;;14.73;;
22713;SDS011;11524;50.846;4.326;2023-01-10T01:58:03;27.50;;;15.23;;
22713;SDS011;11524;50.846;4.326;2023-01-10T02:00:33;26.88;;;14.85;;
22713;SDS011;11524;50.846;4.326;2023-01-10T02:02:59;27.35;;;13.68;;
22713;SDS011;11524;50.846;4.326;2023-01-10T02:05:27;28.42;;;14.35;;
22713;SDS011;11524;50.846;4.326;2023-01-10T02:07:55;25.23;;;13.93;;
22713;SDS011;11524;50.846;4.326;2023-01-10T02:10:25;24.73;;;13.90;;
22713;SDS011;11524;50.846;4.326;2023-01-10T02:12:52;26.17;;;13.85;;
22713;SDS011;11524;50.846;4.326;2023-01-10T02:15:19;25.60;;;13.77;;
22713;SDS011;11524;50.846;4.326;2023-01-10T02:17:46;24.55;;;13.48;;
22713;SDS011;11524;50.846;4.326;2023-01-10T02:20:13;25.67;;;12.65;;
22713;SDS011;11524;50.846;4.326;2023-01-10T02:28:59;20.80;;;11.40;;
22713;SDS011;11524;50.846;4.326;2023-01-10T02:32:18;21.05;;;12.23;;
22713;SDS011;11524;50.846;4.326;2023-01-10T02:34:56;21.58;;;11.98;;
22713;SDS011;11524;50.846;4.326;2023-01-10T02:37:43;23.67;;;12.32;;
22713;SDS011;11524;50.846;4.326;2023-01-10T02:40:43;23.20;;;12.40;;
22713;SDS011;11524;50.846;4.326;2023-01-10T02:46:30;24.00;;;11.88;;
22713;SDS011;11524;50.846;4.326;2023-01-10T02:49:16;21.98;;;11.32;;
22713;SDS011;11524;50.846;4.326;2023-01-10T02:51:43;20.40;;;11.02;;
22713;SDS011;11524;50.846;4.326;2023-01-10T02:54:31;22.77;;;11.00;;
22713;SDS011;11524;50.846;4.326;2023-01-10T03:02:28;19.13;;;10.32;;
22713;SDS011;11524;50.846;4.326;2023-01-10T03:05:41;22.65;;;10.13;;
22713;SDS011;11524;50.846;4.326;2023-01-10T03:08:47;20.00;;;10.13;;
22713;SDS011;11524;50.846;4.326;2023-01-10T03:11:36;18.33;;;10.10;;
22713;SDS011;11524;50.846;4.326;2023-01-10T03:14:23;17.88;;;9.05;;
22713;SDS011;11524;50.846;4.326;2023-01-10T03:17:33;18.08;;;9.05;;
22713;SDS011;11524;50.846;4.326;2023-01-10T03:20:22;15.85;;;8.25;;
22713;SDS011;11524;50.846;4.326;2023-01-10T03:23:11;16.40;;;9.05;;
22713;SDS011;11524;50.846;4.326;2023-01-10T03:25:39;19.95;;;9.63;;
22713;SDS011;11524;50.846;4.326;2023-01-10T03:28:15;16.88;;;8.55;;
22713;SDS011;11524;50.846;4.326;2023-01-10T03:30:48;18.17;;;8.57;;
22713;SDS011;11524;50.846;4.326;2023-01-10T03:33:15;14.35;;;8.80;;
22713;SDS011;11524;50.846;4.326;2023-01-10T03:35:48;14.05;;;7.68;;
22713;SDS011;11524;50.846;4.326;2023-01-10T03:38:37;20.27;;;8.73;;
22713;SDS011;11524;50.846;4.326;2023-01-10T03:44:30;15.90;;;7.28;;
22713;SDS011;11524;50.846;4.326;2023-01-10T03:50:16;14.95;;;8.32;;
22713;SDS011;11524;50.846;4.326;2023-01-10T03:52:47;16.35;;;8.25;;
22713;SDS011;11524;50.846;4.326;2023-01-10T03:55:22;13.88;;;6.70;;
22713;SDS011;11524;50.846;4.326;2023-01-10T03:57:50;13.10;;;7.20;;
22713;SDS011;11524;50.846;4.326;2023-01-10T04:00:16;14.30;;;7.20;;
22713;SDS011;11524;50.846;4.326;2023-01-10T04:02:45;14.68;;;6.85;;
22713;SDS011;11524;50.846;4.326;2023-01-10T04:05:11;15.23;;;7.35;;
22713;SDS011;11524;50.846;4.326;2023-01-10T04:07:37;15.10;;;6.75;;
22713;SDS011;11524;50.846;4.326;2023-01-10T04:10:03;15.13;;;7.03;;
22713;SDS011;11524;50.846;4.326;2023-01-10T04:12:30;15.82;;;6.72;;
22713;SDS011;11524;50.846;4.326;2023-01-10T04:14:55;12.73;;;6.70;;
22713;SDS011;11524;50.846;4.326;2023-01-10T04:17:21;14.20;;;6.55;;
22713;SDS011;11524;50.846;4.326;2023-01-10T04:19:49;12.52;;;6.25;;
22713;SDS011;11524;50.846;4.326;2023-01-10T04:22:15;15.32;;;7.28;;
22713;SDS011;11524;50.846;4.326;2023-01-10T04:24:44;15.27;;;6.55;;
22713;SDS011;11524;50.846;4.326;2023-01-10T04:27:11;13.93;;;6.45;;
22713;SDS011;11524;50.846;4.326;2023-01-10T04:29:36;15.80;;;6.75;;
22713;SDS011;11524;50.846;4.326;2023-01-10T04:32:02;12.35;;;5.15;;
22713;SDS011;11524;50.846;4.326;2023-01-10T04:34:27;13.48;;;5.85;;
22713;SDS011;11524;50.846;4.326;2023-01-10T04:36:53;11.98;;;5.82;;
22713;SDS011;11524;50.846;4.326;2023-01-10T04:39:19;14.02;;;6.07;;
22713;SDS011;11524;50.846;4.326;2023-01-10T04:41:44;12.38;;;5.60;;
22713;SDS011;11524;50.846;4.326;2023-01-10T04:44:10;12.98;;;6.00;;
22713;SDS011;11524;50.846;4.326;2023-01-10T04:46:35;9.93;;;5.50;;
22713;SDS011;11524;50.846;4.326;2023-01-10T04:49:01;12.70;;;5.78;;
22713;SDS011;11524;50.846;4.326;2023-01-10T04:51:26;14.40;;;5.55;;
22713;SDS011;11524;50.846;4.326;2023-01-10T04:53:52;12.10;;;5.72;;
22713;SDS011;11524;50.846;4.326;2023-01-10T04:56:19;14.60;;;6.35;;
22713;SDS011;11524;50.846;4.326;2023-01-10T04:58:46;13.23;;;5.72;;
22713;SDS011;11524;50.846;4.326;2023-01-10T05:01:16;14.43;;;5.80;;
22713;SDS011;11524;50.846;4.326;2023-01-10T05:03:47;10.82;;;5.30;;
22713;SDS011;11524;50.846;4.326;2023-01-10T05:06:17;11.18;;;5.57;;
22713;SDS011;11524;50.846;4.326;2023-01-10T05:08:44;13.63;;;5.70;;
22713;SDS011;11524;50.846;4.326;2023-01-10T05:11:09;14.95;;;5.57;;
22713;SDS011;11524;50.846;4.326;2023-01-10T05:13:36;11.27;;;5.40;;
22713;SDS011;11524;50.846;4.326;2023-01-10T05:16:02;15.60;;;5.28;;
22713;SDS011;11524;50.846;4.326;2023-01-10T05:18:28;9.38;;;4.80;;
22713;SDS011;11524;50.846;4.326;2023-01-10T05:21:27;12.50;;;5.05;;
22713;SDS011;11524;50.846;4.326;2023-01-10T05:23:46;13.18;;;4.93;;
22713;SDS011;11524;50.846;4.326;2023-01-10T05:26:13;10.60;;;4.53;;
22713;SDS011;11524;50.846;4.326;2023-01-10T05:28:40;10.77;;;4.72;;
22713;SDS011;11524;50.846;4.326;2023-01-10T05:31:11;9.57;;;4.72;;
22713;SDS011;11524;50.846;4.326;2023-01-10T05:33:42;9.85;;;5.03;;
22713;SDS011;11524;50.846;4.326;2023-01-10T05:36:11;13.82;;;5.07;;
22713;SDS011;11524;50.846;4.326;2023-01-10T05:38:37;17.23;;;5.80;;
22713;SDS011;11524;50.846;4.326;2023-01-10T05:41:03;10.15;;;4.47;;
22713;SDS011;11524;50.846;4.326;2023-01-10T05:43:28;14.50;;;4.55;;
22713;SDS011;11524;50.846;4.326;2023-01-10T05:45:54;15.73;;;4.82;;
22713;SDS011;11524;50.846;4.326;2023-01-10T05:48:20;12.93;;;5.25;;
22713;SDS011;11524;50.846;4.326;2023-01-10T05:50:45;10.30;;;4.65;;
22713;SDS011;11524;50.846;4.326;2023-01-10T05:53:12;11.57;;;4.57;;
22713;SDS011;11524;50.846;4.326;2023-01-10T05:55:38;9.38;;;4.28;;
22713;SDS011;11524;50.846;4.326;2023-01-10T05:58:04;9.00;;;4.10;;
22713;SDS011;11524;50.846;4.326;2023-01-10T06:00:29;12.50;;;4.53;;
22713;SDS011;11524;50.846;4.326;2023-01-10T06:02:55;12.95;;;4.85;;
22713;SDS011;11524;50.846;4.326;2023-01-10T06:05:22;11.93;;;4.25;;
22713;SDS011;11524;50.846;4.326;2023-01-10T06:07:48;10.52;;;3.88;;
22713;SDS011;11524;50.846;4.326;2023-01-10T06:10:14;11.68;;;4.25;;
22713;SDS011;11524;50.846;4.326;2023-01-10T06:12:41;10.82;;;4.07;;
22713;SDS011;11524;50.846;4.326;2023-01-10T06:15:07;10.18;;;4.05;;
22713;SDS011;11524;50.846;4.326;2023-01-10T06:17:34;11.30;;;3.90;;
22713;SDS011;11524;50.846;4.326;2023-01-10T06:19:59;12.63;;;4.45;;
22713;SDS011;11524;50.846;4.326;2023-01-10T06:22:25;11.25;;;3.70;;
22713;SDS011;11524;50.846;4.326;2023-01-10T06:24:52;11.13;;;4.43;;
22713;SDS011;11524;50.846;4.326;2023-01-10T06:27:18;10.10;;;4.60;;
22713;SDS011;11524;50.846;4.326;2023-01-10T06:29:44;10.98;;;4.10;;
22713;SDS011;11524;50.846;4.326;2023-01-10T06:32:10;8.63;;;3.70;;
22713;SDS011;11524;50.846;4.326;2023-01-10T06:34:35;10.30;;;4.03;;
22713;SDS011;11524;50.846;4.326;2023-01-10T06:37:01;11.18;;;3.78;;
22713;SDS011;11524;50.846;4.326;2023-01-10T06:39:27;8.95;;;3.67;;
22713;SDS011;11524;50.846;4.326;2023-01-10T06:41:52;9.90;;;3.90;;
22713;SDS011;11524;50.846;4.326;2023-01-10T06:44:18;11.02;;;3.67;;
22713;SDS011;11524;50.846;4.326;2023-01-10T06:46:43;11.55;;;4.38;;
22713;SDS011;11524;50.846;4.326;2023-01-10T06:49:09;10.60;;;3.60;;
22713;SDS011;11524;50.846;4.326;2023-01-10T06:51:34;11.27;;;4.35;;
22713;SDS011;11524;50.846;4.326;2023-01-10T06:54:00;12.18;;;3.95;;
22713;SDS011;11524;50.846;4.326;2023-01-10T06:56:25;9.82;;;3.40;;
22713;SDS011;11524;50.846;4.326;2023-01-10T06:58:51;10.75;;;3.65;;
22713;SDS011;11524;50.846;4.326;2023-01-10T07:01:18;12.30;;;3.70;;
22713;SDS011;11524;50.846;4.326;2023-01-10T07:03:45;10.00;;;3.13;;
22713;SDS011;11524;50.846;4.326;2023-01-10T07:06:11;12.57;;;3.45;;
22713;SDS011;11524;50.846;4.326;2023-01-10T07:08:40;9.65;;;3.72;;
22713;SDS011;11524;50.846;4.326;2023-01-10T07:11:08;9.27;;;3.70;;
22713;SDS011;11524;50.846;4.326;2023-01-10T07:13:34;11.05;;;3.53;;
22713;SDS011;11524;50.846;4.326;2023-01-10T07:16:01;7.68;;;3.25;;
22713;SDS011;11524;50.846;4.326;2023-01-10T07:18:32;8.88;;;3.17;;
22713;SDS011;11524;50.846;4.326;2023-01-10T07:20:59;9.15;;;3.22;;
22713;SDS011;11524;50.846;4.326;2023-01-10T07:23:24;10.23;;;3.17;;
22713;SDS011;11524;50.846;4.326;2023-01-10T07:25:50;9.77;;;4.05;;
22713;SDS011;11524;50.846;4.326;2023-01-10T07:28:16;8.80;;;3.45;;
22713;SDS011;11524;50.846;4.326;2023-01-10T07:30:41;9.52;;;3.28;;
22713;SDS011;11524;50.846;4.326;2023-01-10T07:33:07;9.35;;;3.40;;
22713;SDS011;11524;50.846;4.326;2023-01-10T07:35:32;7.97;;;3.10;;
22713;SDS011;11524;50.846;4.326;2023-01-10T07:37:58;11.25;;;3.28;;
22713;SDS011;11524;50.846;4.326;2023-01-10T07:40:24;9.68;;;3.10;;
22713;SDS011;11524;50.846;4.326;2023-01-10T07:42:57;7.72;;;3.42;;
22713;SDS011;11524;50.846;4.326;2023-01-10T07:45:25;6.97;;;2.85;;
22713;SDS011;11524;50.846;4.326;2023-01-10T07:47:55;8.98;;;3.25;;
22713;SDS011;11524;50.846;4.326;2023-01-10T07:50:25;10.82;;;3.80;;
22713;SDS011;11524;50.846;4.326;2023-01-10T07:52:52;7.00;;;2.65;;
22713;SDS011;11524;50.846;4.326;2023-01-10T07:55:17;7.82;;;2.92;;
22713;SDS011;11524;50.846;4.326;2023-01-10T07:57:43;6.22;;;2.95;;
22713;SDS011;11524;50.846;4.326;2023-01-10T08:00:09;5.60;;;2.78;;
22713;SDS011;11524;50.846;4.326;2023-01-10T08:02:35;9.35;;;2.97;;
22713;SDS011;11524;50.846;4.326;2023-01-10T08:05:01;6.93;;;2.85;;
22713;SDS011;11524;50.846;4.326;2023-01-10T08:07:30;7.80;;;2.72;;
22713;SDS011;11524;50.846;4.326;2023-01-10T08:09:56;7.18;;;2.75;;
22713;SDS011;11524;50.846;4.326;2023-01-10T08:12:21;7.85;;;2.85;;
22713;SDS011;11524;50.846;4.326;2023-01-10T08:14:49;9.88;;;3.13;;
22713;SDS011;11524;50.846;4.326;2023-01-10T08:17:15;7.07;;;2.53;;
22713;SDS011;11524;50.846;4.326;2023-01-10T08:19:40;7.35;;;2.90;;
22713;SDS011;11524;50.846;4.326;2023-01-10T08:22:06;7.22;;;2.53;;
22713;SDS011;11524;50.846;4.326;2023-01-10T08:24:32;7.72;;;3.03;;
22713;SDS011;11524;50.846;4.326;2023-01-10T08:26:58;9.52;;;3.08;;
22713;SDS011;11524;50.846;4.326;2023-01-10T08:29:24;8.02;;;3.13;;
22713;SDS011;11524;50.846;4.326;2023-01-10T08:31:50;6.75;;;2.70;;
22713;SDS011;11524;50.846;4.326;2023-01-10T08:34:15;9.50;;;3.00;;
22713;SDS011;11524;50.846;4.326;2023-01-10T08:36:41;6.45;;;2.67;;
22713;SDS011;11524;50.846;4.326;2023-01-10T08:39:07;8.35;;;3.08;;
22713;SDS011;11524;50.846;4.326;2023-01-10T08:41:32;10.68;;;2.63;;
22713;SDS011;11524;50.846;4.326;2023-01-10T08:43:58;8.90;;;2.90;;
22713;SDS011;11524;50.846;4.326;2023-01-10T08:46:24;7.03;;;2.67;;
22713;SDS011;11524;50.846;4.326;2023-01-10T08:48:50;8.45;;;2.95;;
22713;SDS011;11524;50.846;4.326;2023-01-10T08:51:16;7.32;;;2.60;;
22713;SDS011;11524;50.846;4.326;2023-01-10T08:53:42;7.85;;;2.85;;
22713;SDS011;11524;50.846;4.326;2023-01-10T08:56:07;7.00;;;2.70;;
22713;SDS011;11524;50.846;4.326;2023-01-10T08:58:33;8.30;;;2.60;;
22713;SDS011;11524;50.846;4.326;2023-01-10T09:01:02;9.65;;;2.90;;
22713;SDS011;11524;50.846;4.326;2023-01-10T09:03:29;7.22;;;2.55;;
22713;SDS011;11524;50.846;4.326;2023-01-10T09:05:55;7.35;;;2.90;;
22713;SDS011;11524;50.846;4.326;2023-01-10T09:08:23;9.02;;;2.70;;
22713;SDS011;11524;50.846;4.326;2023-01-10T09:10:49;9.70;;;2.53;;
22713;SDS011;11524;50.846;4.326;2023-01-10T09:13:14;7.72;;;2.55;;
22713;SDS011;11524;50.846;4.326;2023-01-10T09:15:40;10.48;;;3.13;;
22713;SDS011;11524;50.846;4.326;2023-01-10T09:18:07;6.88;;;2.40;;
22713;SDS011;11524;50.846;4.326;2023-01-10T09:20:37;5.85;;;2.63;;
22713;SDS011;11524;50.846;4.326;2023-01-10T09:23:04;6.28;;;2.20;;
22713;SDS011;11524;50.846;4.326;2023-01-10T09:25:48;9.10;;;3.00;;
22713;SDS011;11524;50.846;4.326;2023-01-10T09:28:15;8.10;;;2.40;;
22713;SDS011;11524;50.846;4.326;2023-01-10T09:30:41;6.72;;;2.40;;
22713;SDS011;11524;50.846;4.326;2023-01-10T09:33:08;12.32;;;3.30;;
22713;SDS011;11524;50.846;4.326;2023-01-10T09:35:34;9.07;;;2.45;;
22713;SDS011;11524;50.846;4.326;2023-01-10T09:38:01;7.88;;;2.60;;
22713;SDS011;11524;50.846;4.326;2023-01-10T09:46:14;8.55;;;2.80;;
22713;SDS011;11524;50.846;4.326;2023-01-10T09:51:37;8.85;;;2.55;;
22713;SDS011;11524;50.846;4.326;2023-01-10T09:54:08;9.73;;;3.22;;
22713;SDS011;11524;50.846;4.326;2023-01-10T09:56:50;7.80;;;3.33;;
22713;SDS011;11524;50.846;4.326;2023-01-10T09:59:20;9.00;;;2.35;;
22713;SDS011;11524;50.846;4.326;2023-01-10T10:01:49;6.43;;;2.53;;
22713;SDS011;11524;50.846;4.326;2023-01-10T10:04:24;7.75;;;2.42;;
22713;SDS011;11524;50.846;4.326;2023-01-10T10:06:56;7.78;;;2.75;;
22713;SDS011;11524;50.846;4.326;2023-01-10T10:09:26;7.13;;;2.72;;
22713;SDS011;11524;50.846;4.326;2023-01-10T10:12:16;6.38;;;2.60;;
22713;SDS011;11524;50.846;4.326;2023-01-10T10:17:23;11.45;;;3.28;;
22713;SDS011;11524;50.846;4.326;2023-01-10T10:25:51;8.82;;;2.50;;
22713;SDS011;11524;50.846;4.326;2023-01-10T10:28:51;5.82;;;2.30;;
22713;SDS011;11524;50.846;4.326;2023-01-10T10:34:37;6.57;;;2.50;;
22713;SDS011;11524;50.846;4.326;2023-01-10T10:37:19;8.38;;;2.53;;
22713;SDS011;11524;50.846;4.326;2023-01-10T10:39:57;6.70;;;2.30;;
22713;SDS011;11524;50.846;4.326;2023-01-10T10:42:30;7.97;;;2.42;;
22713;SDS011;11524;50.846;4.326;2023-01-10T10:45:04;7.30;;;2.50;;
22713;SDS011;11524;50.846;4.326;2023-01-10T10:47:39;6.03;;;2.40;;
22713;SDS011;11524;50.846;4.326;2023-01-10T10:50:17;7.70;;;2.50;;
22713;SDS011;11524;50.846;4.326;2023-01-10T10:53:03;8.13;;;2.60;;
22713;SDS011;11524;50.846;4.326;2023-01-10T10:55:34;7.93;;;2.35;;
22713;SDS011;11524;50.846;4.326;2023-01-10T10:58:02;8.10;;;2.38;;
22713;SDS011;11524;50.846;4.326;2023-01-10T11:00:29;12.80;;;2.72;;
22713;SDS011;11524;50.846;4.326;2023-01-10T11:05:50;5.13;;;2.33;;
22713;SDS011;11524;50.846;4.326;2023-01-10T11:08:17;7.38;;;2.75;;
22713;SDS011;11524;50.846;4.326;2023-01-10T11:10:49;7.18;;;2.38;;
22713;SDS011;11524;50.846;4.326;2023-01-10T11:15:59;9.32;;;3.00;;
22713;SDS011;11524;50.846;4.326;2023-01-10T11:18:27;9.07;;;2.53;;
22713;SDS011;11524;50.846;4.326;2023-01-10T11:20:58;10.55;;;3.05;;
22713;SDS011;11524;50.846;4.326;2023-01-10T11:26:26;7.78;;;2.20;;
22713;SDS011;11524;50.846;4.326;2023-01-10T11:28:52;8.18;;;2.70;;
22713;SDS011;11524;50.846;4.326;2023-01-10T11:31:32;8.05;;;2.47;;
22713;SDS011;11524;50.846;4.326;2023-01-10T11:34:00;7.50;;;2.58;;
22713;SDS011;11524;50.846;4.326;2023-01-10T11:36:52;8.40;;;2.67;;
22713;SDS011;11524;50.846;4.326;2023-01-10T11:39:18;8.70;;;2.30;;
22713;SDS011;11524;50.846;4.326;2023-01-10T11:41:43;7.68;;;2.75;;
22713;SDS011;11524;50.846;4.326;2023-01-10T11:44:42;6.68;;;1.88;;
22713;SDS011;11524;50.846;4.326;2023-01-10T11:47:03;8.02;;;2.60;;
22713;SDS011;11524;50.846;4.326;2023-01-10T11:49:35;6.70;;;2.42;;
22713;SDS011;11524;50.846;4.326;2023-01-10T11:52:03;7.30;;;2.28;;
22713;SDS011;11524;50.846;4.326;2023-01-10T11:54:38;8.48;;;2.75;;
22713;SDS011;11524;50.846;4.326;2023-01-10T11:57:13;8.18;;;2.13;;
22713;SDS011;11524;50.846;4.326;2023-01-10T11:59:51;8.88;;;2.40;;
22713;SDS011;11524;50.846;4.326;2023-01-10T12:02:26;5.72;;;1.98;;
22713;SDS011;11524;50.846;4.326;2023-01-10T12:04:57;9.27;;;2.55;;
22713;SDS011;11524;50.846;4.326;2023-01-10T12:07:26;7.40;;;1.98;;
22713;SDS011;11524;50.846;4.326;2023-01-10T12:09:58;6.18;;;2.30;;
22713;SDS011;11524;50.846;4.326;2023-01-10T12:12:27;5.82;;;2.03;;
22713;SDS011;11524;50.846;4.326;2023-01-10T12:14:56;9.30;;;2.28;;
22713;SDS011;11524;50.846;4.326;2023-01-10T12:17:24;7.50;;;2.92;;
22713;SDS011;11524;50.846;4.326;2023-01-10T12:19:56;13.20;;;7.53;;
22713;SDS011;11524;50.846;4.326;2023-01-10T12:22:31;26.00;;;15.10;;
22713;SDS011;11524;50.846;4.326;2023-01-10T12:25:02;35.03;;;21.60;;
22713;SDS011;11524;50.846;4.326;2023-01-10T12:27:49;39.33;;;23.90;;
22713;SDS011;11524;50.846;4.326;2023-01-10T12:30:28;35.25;;;20.58;;
22713;SDS011;11524;50.846;4.326;2023-01-10T12:33:01;36.72;;;22.88;;
22713;SDS011;11524;50.846;4.326;2023-01-10T12:35:45;40.95;;;23.75;;
22713;SDS011;11524;50.846;4.326;2023-01-10T12:38:26;33.35;;;20.48;;
22713;SDS011;11524;50.846;4.326;2023-01-10T12:44:27;28.70;;;17.83;;
22713;SDS011;11524;50.846;4.326;2023-01-10T12:49:48;29.98;;;16.85;;
22713;SDS011;11524;50.846;4.326;2023-01-10T12:52:38;29.73;;;17.15;;
22713;SDS011;11524;50.846;4.326;2023-01-10T12:55:45;23.90;;;13.85;;
22713;SDS011;11524;50.846;4.326;2023-01-10T12:58:12;23.60;;;14.15;;
22713;SDS011;11524;50.846;4.326;2023-01-10T13:00:51;22.73;;;14.10;;
22713;SDS011;11524;50.846;4.326;2023-01-10T13:03:23;26.17;;;14.95;;
22713;SDS011;11524;50.846;4.326;2023-01-10T13:08:22;23.90;;;13.77;;
22713;SDS011;11524;50.846;4.326;2023-01-10T13:10:51;23.45;;;14.18;;
22713;SDS011;11524;50.846;4.326;2023-01-10T13:15:51;19.55;;;11.45;;
22713;SDS011;11524;50.846;4.326;2023-01-10T13:21:03;21.55;;;11.68;;
22713;SDS011;11524;50.846;4.326;2023-01-10T13:23:33;21.05;;;11.93;;
22713;SDS011;11524;50.846;4.326;2023-01-10T13:26:05;19.92;;;10.73;;
22713;SDS011;11524;50.846;4.326;2023-01-10T13:28:33;17.33;;;10.25;;
22713;SDS011;11524;50.846;4.326;2023-01-10T13:31:02;19.52;;;10.68;;
22713;SDS011;11524;50.846;4.326;2023-01-10T13:36:11;17.63;;;10.20;;
22713;SDS011;11524;50.846;4.326;2023-01-10T13:38:46;21.92;;;10.70;;
22713;SDS011;11524;50.846;4.326;2023-01-10T13:41:13;16.15;;;9.88;;
22713;SDS011;11524;50.846;4.326;2023-01-10T13:43:58;17.90;;;10.23;;
22713;SDS011;11524;50.846;4.326;2023-01-10T13:51:19;17.13;;;8.93;;
22713;SDS011;11524;50.846;4.326;2023-01-10T13:56:33;15.35;;;9.57;;
22713;SDS011;11524;50.846;4.326;2023-01-10T13:59:00;19.63;;;10.40;;
22713;SDS011;11524;50.846;4.326;2023-01-10T14:01:50;15.05;;;9.57;;
22713;SDS011;11524;50.846;4.326;2023-01-10T14:04:44;15.48;;;8.07;;
22713;SDS011;11524;50.846;4.326;2023-01-10T14:10:00;12.85;;;7.50;;
22713;SDS011;11524;50.846;4.326;2023-01-10T14:12:30;14.48;;;7.72;;
22713;SDS011;11524;50.846;4.326;2023-01-10T14:15:27;13.85;;;7.20;;
22713;SDS011;11524;50.846;4.326;2023-01-10T14:18:02;15.07;;;8.88;;
22713;SDS011;11524;50.846;4.326;2023-01-10T14:20:40;13.20;;;6.75;;
22713;SDS011;11524;50.846;4.326;2023-01-10T14:23:07;13.90;;;7.57;;
22713;SDS011;11524;50.846;4.326;2023-01-10T14:25:39;12.45;;;7.30;;
22713;SDS011;11524;50.846;4.326;2023-01-10T14:28:20;13.77;;;7.97;;
22713;SDS011;11524;50.846;4.326;2023-01-10T14:30:54;12.00;;;7.32;;
22713;SDS011;11524;50.846;4.326;2023-01-10T14:36:19;12.50;;;6.85;;
22713;SDS011;11524;50.846;4.326;2023-01-10T14:38:58;11.50;;;6.90;;
22713;SDS011;11524;50.846;4.326;2023-01-10T14:41:34;12.38;;;6.65;;
22713;SDS011;11524;50.846;4.326;2023-01-10T14:46:54;10.52;;;5.95;;
22713;SDS011;11524;50.846;4.326;2023-01-10T14:49:28;10.20;;;5.70;;
22713;SDS011;11524;50.846;4.326;2023-01-10T14:52:11;11.07;;;6.43;;
22713;SDS011;11524;50.846;4.326;2023-01-10T14:54:41;12.15;;;6.15;;
22713;SDS011;11524;50.846;4.326;2023-01-10T14:57:20;9.50;;;5.82;;
22713;SDS011;11524;50.846;4.326;2023-01-10T14:59:47;11.35;;;5.65;;
22713;SDS011;11524;50.846;4.326;2023-01-10T15:02:21;9.10;;;5.22;;
22713;SDS011;11524;50.846;4.326;2023-01-10T15:07:18;9.23;;;5.32;;
22713;SDS011;11524;50.846;4.326;2023-01-10T15:09:47;9.65;;;5.68;;
22713;SDS011;11524;50.846;4.326;2023-01-10T15:12:14;6.95;;;4.60;;
22713;SDS011;11524;50.846;4.326;2023-01-10T15:14:42;9.77;;;4.90;;
22713;SDS011;11524;50.846;4.326;2023-01-10T15:17:10;8.30;;;4.63;;
22713;SDS011;11524;50.846;4.326;2023-01-10T15:19:41;8.65;;;4.65;;
22713;SDS011;11524;50.846;4.326;2023-01-10T15:22:29;7.63;;;4.63;;
22713;SDS011;11524;50.846;4.326;2023-01-10T15:27:25;7.88;;;4.40;;
22713;SDS011;11524;50.846;4.326;2023-01-10T15:29:51;7.07;;;4.28;;
22713;SDS011;11524;50.846;4.326;2023-01-10T15:32:32;5.90;;;3.70;;
22713;SDS011;11524;50.846;4.326;2023-01-10T15:37:27;6.03;;;3.97;;
22713;SDS011;11524;50.846;4.326;2023-01-10T15:39:58;6.80;;;4.53;;
22713;SDS011;11524;50.846;4.326;2023-01-10T15:42:25;6.45;;;3.75;;
22713;SDS011;11524;50.846;4.326;2023-01-10T15:44:51;6.95;;;3.97;;
22713;SDS011;11524;50.846;4.326;2023-01-10T15:47:34;7.65;;;3.50;;
22713;SDS011;11524;50.846;4.326;2023-01-10T15:53:09;5.95;;;3.58;;
22713;SDS011;11524;50.846;4.326;2023-01-10T15:58:15;6.78;;;4.25;;
22713;SDS011;11524;50.846;4.326;2023-01-10T16:00:51;4.97;;;3.50;;
22713;SDS011;11524;50.846;4.326;2023-01-10T16:05:52;5.75;;;3.28;;
22713;SDS011;11524;50.846;4.326;2023-01-10T16:08:29;6.22;;;3.75;;
22713;SDS011;11524;50.846;4.326;2023-01-10T16:10:57;5.25;;;3.13;;
22713;SDS011;11524;50.846;4.326;2023-01-10T16:13:25;3.83;;;2.60;;
22713;SDS011;11524;50.846;4.326;2023-01-10T16:15:51;6.35;;;3.58;;
22713;SDS011;11524;50.846;4.326;2023-01-10T16:18:20;5.40;;;3.25;;
22713;SDS011;11524;50.846;4.326;2023-01-10T16:20:46;6.18;;;3.28;;
22713;SDS011;11524;50.846;4.326;2023-01-10T16:23:24;5.10;;;3.30;;
22713;SDS011;11524;50.846;4.326;2023-01-10T16:25:57;4.22;;;2.55;;
22713;SDS011;11524;50.846;4.326;2023-01-10T16:28:25;6.25;;;3.38;;
22713;SDS011;11524;50.846;4.326;2023-01-10T16:30:54;4.53;;;2.70;;
22713;SDS011;11524;50.846;4.326;2023-01-10T16:33:24;4.05;;;2.30;;
22713;SDS011;11524;50.846;4.326;2023-01-10T16:35:52;5.85;;;2.65;;
22713;SDS011;11524;50.846;4.326;2023-01-10T16:38:23;6.82;;;3.20;;
22713;SDS011;11524;50.846;4.326;2023-01-10T16:43:16;7.20;;;3.17;;